Freedom of the Seas — C6UZ7 — position and weather

sailwx.info

Track history (hours):
 
Tides and Currents Weather Stations Pressure Air Temp Water Temp Dewpoint Dewpoint Depression Visibility Wind Speed Wind Dir Waves Ship Positions

Freedom of the Seas

Last reported at 2019-Aug-20 09:06 UTC. Time now 2019-Aug-20 09:38 UTC.
Position N 17°31' W 063°05'.

Length 339 m; draft 8.8 m.

Type: Ship. MMSI: 309906000.

Date/timePositionNaut miles runAvg speedWind from/ knotsBaromVisibWave heightAir tempDewpointWater temp
2019-Aug-20 09:06N 17°31' W 063°05'311.2
2019-Aug-20 08:50N 17°34' W 063°07'310.4
2019-Aug-20 08:30N 17°37' W 063°09'611.2
2019-Aug-20 07:58N 17°41' W 063°13'510.9
2019-Aug-20 07:29N 17°44' W 063°18'612.5
2019-Aug-20 07:00N 17°42' W 063°24'4212.9 070 / 171017.010.8 28.0
2019-Aug-20 06:58N 17°46' W 063°23'611.3
2019-Aug-20 06:24N 17°49' W 063°29'7411.1
2019-Aug-19 23:47N 18°10' W 064°43'311.5
2019-Aug-19 23:30N 18°11' W 064°47'611.6
2019-Aug-19 23:00N 18°13' W 064°53'611.7
2019-Aug-19 22:30N 18°16' W 064°58'4 7.1
2019-Aug-19 22:00N 18°19' W 064°58'1 1.8
2019-Aug-19 21:30N 18°20' W 064°57'0 0.0
2019-Aug-19 21:00N 18°20' W 064°57'0 0.0
2019-Aug-19 20:30N 18°20' W 064°57'0 0.0
2019-Aug-19 20:00N 18°20' W 064°57'0 0.0
2019-Aug-19 19:30N 18°20' W 064°57'0 0.0
2019-Aug-19 19:00N 18°20' W 064°57'0 0.0
2019-Aug-19 18:30N 18°20' W 064°57'0 0.0
2019-Aug-19 18:00N 18°20' W 064°57'0 0.0
2019-Aug-19 17:30N 18°20' W 064°57'0 0.0
2019-Aug-19 17:00N 18°20' W 064°57'0 0.0
2019-Aug-19 16:30N 18°20' W 064°57'0 0.0
2019-Aug-19 16:00N 18°20' W 064°57'0 0.0
2019-Aug-19 15:30N 18°20' W 064°57'0 0.0
2019-Aug-19 15:00N 18°20' W 064°57'0 0.0
2019-Aug-19 14:30N 18°20' W 064°57'0 0.0
2019-Aug-19 14:00N 18°20' W 064°57'0 0.0
2019-Aug-19 13:30N 18°20' W 064°57'0 0.0
2019-Aug-19 13:00N 18°20' W 064°57'0 0.0
2019-Aug-19 12:30N 18°20' W 064°57'0 0.0
2019-Aug-19 12:00N 18°20' W 064°57'2 3.9
2019-Aug-19 11:30N 18°19' W 064°59'4 8.0
2019-Aug-19 11:01N 18°17' W 065°03'5 9.6
2019-Aug-19 10:31N 18°19' W 065°07'5 9.0
2019-Aug-19 10:01N 18°23' W 065°10'4 8.7
2019-Aug-19 09:30N 18°27' W 065°12'4 8.3
2019-Aug-19 09:01N 18°30' W 065°14'4 8.0
2019-Aug-19 08:31N 18°34' W 065°16'4 7.3
2019-Aug-19 08:01N 18°37' W 065°19'4 7.5
2019-Aug-19 07:31N 18°38' W 065°22'4 7.9
2019-Aug-19 07:01N 18°38' W 065°27'3187.8
2019-Aug-19 07:00N 18°36' W 065°24'714.9 090 / 171018.010.8 28.0
2019-Aug-19 06:31N 18°39' W 065°31'4 8.1
2019-Aug-19 06:01N 18°40' W 065°35'4 8.0
2019-Aug-19 05:31N 18°41' W 065°39'4 7.9
2019-Aug-19 05:00N 18°41' W 065°43'4 8.0
2019-Aug-19 04:30N 18°42' W 065°48'18 6.9
2019-Aug-19 01:57N 18°38' W 066°06'510.3
2019-Aug-19 01:29N 18°33' W 066°07'5 9.6
2019-Aug-19 01:00N 18°29' W 066°08'2 3.9
2019-Aug-19 00:28N 18°28' W 066°06'0 0.0
2019-Aug-18 23:58N 18°28' W 066°06'0 0.0
2019-Aug-18 23:28N 18°28' W 066°06'0 0.0
2019-Aug-18 22:58N 18°28' W 066°06'0 0.0
2019-Aug-18 22:28N 18°28' W 066°06'0 0.0
2019-Aug-18 21:58N 18°28' W 066°06'0 0.0
2019-Aug-18 21:22N 18°28' W 066°06'0 0.0
2019-Aug-18 20:16N 18°28' W 066°06'0 0.0
2019-Aug-18 19:58N 18°28' W 066°06'0 0.0
2019-Aug-18 19:10N 18°28' W 066°06'0 0.0
2019-Aug-18 18:58N 18°28' W 066°06'0 0.0
2019-Aug-18 18:04N 18°28' W 066°06'0 0.0
2019-Aug-18 17:25N 18°28' W 066°06'0 0.0
2019-Aug-18 16:52N 18°28' W 066°06'0 0.0
2019-Aug-18 16:28N 18°28' W 066°06'0 0.0
2019-Aug-18 15:52N 18°28' W 066°06'0 0.0
2019-Aug-18 15:28N 18°28' W 066°06'0 0.0
2019-Aug-18 14:58N 18°28' W 066°06'0 0.0
2019-Aug-18 14:28N 18°28' W 066°06'0 0.0
2019-Aug-18 13:58N 18°28' W 066°06'0 0.0
2019-Aug-18 13:28N 18°28' W 066°06'0 0.0
2019-Aug-18 12:58N 18°28' W 066°06'0 0.0
2019-Aug-18 12:28N 18°28' W 066°06'0 0.0
2019-Aug-18 11:58N 18°28' W 066°06'0 0.0
2019-Aug-18 11:28N 18°28' W 066°06'0 0.0
2019-Aug-18 10:58N 18°28' W 066°06'0 0.0
2019-Aug-18 10:28N 18°28' W 066°06'0 0.1
2019-Aug-18 09:20N 18°28' W 066°06'1 3.8
2019-Aug-18 09:01N 18°28' W 066°07'510.4
2019-Aug-18 08:30N 18°33' W 066°06'610.7
2019-Aug-18 07:59N 18°33' W 065°60'1311.6
2019-Aug-18 06:53N 18°32' W 065°46'412.1
2019-Aug-18 06:30N 18°32' W 065°41'713.9
2019-Aug-18 06:00N 18°31' W 065°34'917.8
2019-Aug-18 05:30N 18°30' W 065°25'816.8
2019-Aug-18 05:00N 18°27' W 065°17'917.7
2019-Aug-18 04:30N 18°20' W 065°11'816.8
2019-Aug-18 04:00N 18°15' W 065°04'917.2
2019-Aug-18 03:30N 18°12' W 064°55'917.6
2019-Aug-18 03:00N 18°11' W 064°46'8417.2
2019-Aug-17 22:06N 18°01' W 063°18'417.3
2019-Aug-17 21:54N 18°01' W 063°14'1113.1
2019-Aug-17 21:05N 18°00' W 063°03'0 0.1
2019-Aug-17 15:53N 18°01' W 063°03'0 0.0
2019-Aug-17 13:53N 18°01' W 063°03'0 0.1
2019-Aug-17 11:40N 18°01' W 063°03'4 8.2
2019-Aug-17 11:12N 17°59' W 063°07'5412.8
2019-Aug-17 07:00N 17°30' W 063°54'   020 / 271015.010.8 28.0
2019-Aug-12 01:03N 18°30' W 066°08'2 9.7
2019-Aug-12 00:53N 18°28' W 066°07'1 3.8
2019-Aug-12 00:30N 18°28' W 066°06'0 0.0
2019-Aug-11 23:49N 18°28' W 066°06'0 0.0
2019-Aug-11 23:25N 18°28' W 066°06'0 0.0
2019-Aug-11 23:00N 18°28' W 066°06'0 0.0
2019-Aug-11 22:30N 18°28' W 066°06'0 0.0
2019-Aug-11 21:58N 18°28' W 066°06'0 0.0
2019-Aug-11 21:28N 18°28' W 066°06'0 0.0
2019-Aug-11 20:58N 18°28' W 066°06'0 0.0
2019-Aug-11 20:28N 18°28' W 066°06'0 0.0
2019-Aug-11 19:58N 18°28' W 066°06'0 0.0
2019-Aug-11 19:28N 18°28' W 066°06'0 0.0
2019-Aug-11 18:28N 18°28' W 066°06'0 0.0
2019-Aug-11 17:58N 18°28' W 066°06'0 0.0
2019-Aug-11 17:28N 18°28' W 066°06'0 0.0
2019-Aug-11 16:58N 18°28' W 066°06'0 0.0
2019-Aug-11 16:28N 18°28' W 066°06'0 0.0
2019-Aug-11 15:58N 18°28' W 066°06'0 0.0
2019-Aug-11 15:28N 18°28' W 066°06'0 0.0
2019-Aug-11 14:58N 18°28' W 066°06'0 0.0
2019-Aug-11 14:28N 18°28' W 066°06'0 0.0
2019-Aug-11 13:58N 18°28' W 066°06'0 0.0
2019-Aug-11 13:28N 18°28' W 066°06'0 0.0
2019-Aug-11 12:58N 18°28' W 066°06'0 0.0
2019-Aug-11 12:28N 18°28' W 066°06'0 0.0
2019-Aug-11 11:58N 18°28' W 066°06'0 0.0
2019-Aug-11 11:28N 18°28' W 066°06'0 0.0
2019-Aug-11 10:58N 18°28' W 066°06'0 0.0
2019-Aug-11 10:28N 18°28' W 066°06'0 0.0
2019-Aug-11 09:58N 18°28' W 066°06'0 0.8
2019-Aug-11 09:30N 18°28' W 066°06'1 2.8
2019-Aug-11 09:00N 18°28' W 066°08'5 9.6
2019-Aug-11 08:30N 18°33' W 066°05'510.7
2019-Aug-11 08:00N 18°33' W 065°60'1111.9
2019-Aug-11 07:03N 18°32' W 065°48'113.2
2019-Aug-11 07:01N 18°32' W 065°47'713.2
2019-Aug-11 06:31N 18°32' W 065°40'611.8
2019-Aug-11 06:01N 18°31' W 065°34'612.4
2019-Aug-11 05:31N 18°29' W 065°28'612.6
2019-Aug-11 05:01N 18°28' W 065°22'612.3
2019-Aug-11 04:31N 18°25' W 065°15'713.0
2019-Aug-11 04:01N 18°21' W 065°11'713.3
2019-Aug-11 03:31N 18°16' W 065°06'713.2
2019-Aug-11 03:01N 18°12' W 065°00'713.4
2019-Aug-11 02:31N 18°09' W 064°54'713.4
2019-Aug-11 02:01N 18°05' W 064°48'713.3
2019-Aug-11 01:30N 18°02' W 064°42'713.5
2019-Aug-11 00:59N 17°58' W 064°36'  
Track history (hours):
 
Tides and Currents Weather Stations Pressure Air Temp Water Temp Dewpoint Dewpoint Depression Visibility Wind Speed Wind Dir Waves Ship Positions

Freedom of the Seas

Last reported at 2019-Aug-20 09:06 UTC. Time now 2019-Aug-20 09:38 UTC.
Position N 17°31' W 063°05'.

Length 339 m; draft 8.8 m.

Type: Ship. MMSI: 309906000.

Date/timePositionNaut miles runAvg speedWind from/ knotsBaromVisibWave heightAir tempDewpointWater temp
2019-Aug-20 09:06N 17°31' W 063°05'311.2
2019-Aug-20 08:50N 17°34' W 063°07'310.4
2019-Aug-20 08:30N 17°37' W 063°09'611.2
2019-Aug-20 07:58N 17°41' W 063°13'510.9
2019-Aug-20 07:29N 17°44' W 063°18'612.5
2019-Aug-20 07:00N 17°42' W 063°24'4212.9 070 / 171017.010.8 28.0
2019-Aug-20 06:58N 17°46' W 063°23'611.3
2019-Aug-20 06:24N 17°49' W 063°29'7411.1
2019-Aug-19 23:47N 18°10' W 064°43'311.5
2019-Aug-19 23:30N 18°11' W 064°47'611.6
2019-Aug-19 23:00N 18°13' W 064°53'611.7
2019-Aug-19 22:30N 18°16' W 064°58'4 7.1
2019-Aug-19 22:00N 18°19' W 064°58'1 1.8
2019-Aug-19 21:30N 18°20' W 064°57'0 0.0
2019-Aug-19 21:00N 18°20' W 064°57'0 0.0
2019-Aug-19 20:30N 18°20' W 064°57'0 0.0
2019-Aug-19 20:00N 18°20' W 064°57'0 0.0
2019-Aug-19 19:30N 18°20' W 064°57'0 0.0
2019-Aug-19 19:00N 18°20' W 064°57'0 0.0
2019-Aug-19 18:30N 18°20' W 064°57'0 0.0
2019-Aug-19 18:00N 18°20' W 064°57'0 0.0
2019-Aug-19 17:30N 18°20' W 064°57'0 0.0
2019-Aug-19 17:00N 18°20' W 064°57'0 0.0
2019-Aug-19 16:30N 18°20' W 064°57'0 0.0
2019-Aug-19 16:00N 18°20' W 064°57'0 0.0
2019-Aug-19 15:30N 18°20' W 064°57'0 0.0
2019-Aug-19 15:00N 18°20' W 064°57'0 0.0
2019-Aug-19 14:30N 18°20' W 064°57'0 0.0
2019-Aug-19 14:00N 18°20' W 064°57'0 0.0
2019-Aug-19 13:30N 18°20' W 064°57'0 0.0
2019-Aug-19 13:00N 18°20' W 064°57'0 0.0
2019-Aug-19 12:30N 18°20' W 064°57'0 0.0
2019-Aug-19 12:00N 18°20' W 064°57'2 3.9
2019-Aug-19 11:30N 18°19' W 064°59'4 8.0
2019-Aug-19 11:01N 18°17' W 065°03'5 9.6
2019-Aug-19 10:31N 18°19' W 065°07'5 9.0
2019-Aug-19 10:01N 18°23' W 065°10'4 8.7
2019-Aug-19 09:30N 18°27' W 065°12'4 8.3
2019-Aug-19 09:01N 18°30' W 065°14'4 8.0
2019-Aug-19 08:31N 18°34' W 065°16'4 7.3
2019-Aug-19 08:01N 18°37' W 065°19'4 7.5
2019-Aug-19 07:31N 18°38' W 065°22'4 7.9
2019-Aug-19 07:01N 18°38' W 065°27'3187.8
2019-Aug-19 07:00N 18°36' W 065°24'714.9 090 / 171018.010.8 28.0
2019-Aug-19 06:31N 18°39' W 065°31'4 8.1
2019-Aug-19 06:01N 18°40' W 065°35'4 8.0
2019-Aug-19 05:31N 18°41' W 065°39'4 7.9
2019-Aug-19 05:00N 18°41' W 065°43'4 8.0
2019-Aug-19 04:30N 18°42' W 065°48'18 6.9
2019-Aug-19 01:57N 18°38' W 066°06'510.3
2019-Aug-19 01:29N 18°33' W 066°07'5 9.6
2019-Aug-19 01:00N 18°29' W 066°08'2 3.9
2019-Aug-19 00:28N 18°28' W 066°06'0 0.0
2019-Aug-18 23:58N 18°28' W 066°06'0 0.0
2019-Aug-18 23:28N 18°28' W 066°06'0 0.0
2019-Aug-18 22:58N 18°28' W 066°06'0 0.0
2019-Aug-18 22:28N 18°28' W 066°06'0 0.0
2019-Aug-18 21:58N 18°28' W 066°06'0 0.0
2019-Aug-18 21:22N 18°28' W 066°06'0 0.0
2019-Aug-18 20:16N 18°28' W 066°06'0 0.0
2019-Aug-18 19:58N 18°28' W 066°06'0 0.0
2019-Aug-18 19:10N 18°28' W 066°06'0 0.0
2019-Aug-18 18:58N 18°28' W 066°06'0 0.0
2019-Aug-18 18:04N 18°28' W 066°06'0 0.0
2019-Aug-18 17:25N 18°28' W 066°06'0 0.0
2019-Aug-18 16:52N 18°28' W 066°06'0 0.0
2019-Aug-18 16:28N 18°28' W 066°06'0 0.0
2019-Aug-18 15:52N 18°28' W 066°06'0 0.0
2019-Aug-18 15:28N 18°28' W 066°06'0 0.0
2019-Aug-18 14:58N 18°28' W 066°06'0 0.0
2019-Aug-18 14:28N 18°28' W 066°06'0 0.0
2019-Aug-18 13:58N 18°28' W 066°06'0 0.0
2019-Aug-18 13:28N 18°28' W 066°06'0 0.0
2019-Aug-18 12:58N 18°28' W 066°06'0 0.0
2019-Aug-18 12:28N 18°28' W 066°06'0 0.0
2019-Aug-18 11:58N 18°28' W 066°06'0 0.0
2019-Aug-18 11:28N 18°28' W 066°06'0 0.0
2019-Aug-18 10:58N 18°28' W 066°06'0 0.0
2019-Aug-18 10:28N 18°28' W 066°06'0 0.1
2019-Aug-18 09:20N 18°28' W 066°06'1 3.8
2019-Aug-18 09:01N 18°28' W 066°07'510.4
2019-Aug-18 08:30N 18°33' W 066°06'610.7
2019-Aug-18 07:59N 18°33' W 065°60'1311.6
2019-Aug-18 06:53N 18°32' W 065°46'412.1
2019-Aug-18 06:30N 18°32' W 065°41'713.9
2019-Aug-18 06:00N 18°31' W 065°34'917.8
2019-Aug-18 05:30N 18°30' W 065°25'816.8
2019-Aug-18 05:00N 18°27' W 065°17'917.7
2019-Aug-18 04:30N 18°20' W 065°11'816.8
2019-Aug-18 04:00N 18°15' W 065°04'917.2
2019-Aug-18 03:30N 18°12' W 064°55'917.6
2019-Aug-18 03:00N 18°11' W 064°46'8417.2
2019-Aug-17 22:06N 18°01' W 063°18'417.3
2019-Aug-17 21:54N 18°01' W 063°14'1113.1
2019-Aug-17 21:05N 18°00' W 063°03'0 0.1
2019-Aug-17 15:53N 18°01' W 063°03'0 0.0
2019-Aug-17 13:53N 18°01' W 063°03'0 0.1
2019-Aug-17 11:40N 18°01' W 063°03'4 8.2
2019-Aug-17 11:12N 17°59' W 063°07'5412.8
2019-Aug-17 07:00N 17°30' W 063°54'   020 / 271015.010.8 28.0
2019-Aug-12 01:03N 18°30' W 066°08'2 9.7
2019-Aug-12 00:53N 18°28' W 066°07'1 3.8
2019-Aug-12 00:30N 18°28' W 066°06'0 0.0
2019-Aug-11 23:49N 18°28' W 066°06'0 0.0
2019-Aug-11 23:25N 18°28' W 066°06'0 0.0
2019-Aug-11 23:00N 18°28' W 066°06'0 0.0
2019-Aug-11 22:30N 18°28' W 066°06'0 0.0
2019-Aug-11 21:58N 18°28' W 066°06'0 0.0
2019-Aug-11 21:28N 18°28' W 066°06'0 0.0
2019-Aug-11 20:58N 18°28' W 066°06'0 0.0
2019-Aug-11 20:28N 18°28' W 066°06'0 0.0
2019-Aug-11 19:58N 18°28' W 066°06'0 0.0
2019-Aug-11 19:28N 18°28' W 066°06'0 0.0
2019-Aug-11 18:28N 18°28' W 066°06'0 0.0
2019-Aug-11 17:58N 18°28' W 066°06'0 0.0
2019-Aug-11 17:28N 18°28' W 066°06'0 0.0
2019-Aug-11 16:58N 18°28' W 066°06'0 0.0
2019-Aug-11 16:28N 18°28' W 066°06'0 0.0
2019-Aug-11 15:58N 18°28' W 066°06'0 0.0
2019-Aug-11 15:28N 18°28' W 066°06'0 0.0
2019-Aug-11 14:58N 18°28' W 066°06'0 0.0
2019-Aug-11 14:28N 18°28' W 066°06'0 0.0
2019-Aug-11 13:58N 18°28' W 066°06'0 0.0
2019-Aug-11 13:28N 18°28' W 066°06'0 0.0
2019-Aug-11 12:58N 18°28' W 066°06'0 0.0
2019-Aug-11 12:28N 18°28' W 066°06'0 0.0
2019-Aug-11 11:58N 18°28' W 066°06'0 0.0
2019-Aug-11 11:28N 18°28' W 066°06'0 0.0
2019-Aug-11 10:58N 18°28' W 066°06'0 0.0
2019-Aug-11 10:28N 18°28' W 066°06'0 0.0
2019-Aug-11 09:58N 18°28' W 066°06'0 0.8
2019-Aug-11 09:30N 18°28' W 066°06'1 2.8
2019-Aug-11 09:00N 18°28' W 066°08'5 9.6
2019-Aug-11 08:30N 18°33' W 066°05'510.7
2019-Aug-11 08:00N 18°33' W 065°60'1111.9
2019-Aug-11 07:03N 18°32' W 065°48'113.2
2019-Aug-11 07:01N 18°32' W 065°47'713.2
2019-Aug-11 06:31N 18°32' W 065°40'611.8
2019-Aug-11 06:01N 18°31' W 065°34'612.4
2019-Aug-11 05:31N 18°29' W 065°28'612.6
2019-Aug-11 05:01N 18°28' W 065°22'612.3
2019-Aug-11 04:31N 18°25' W 065°15'713.0
2019-Aug-11 04:01N 18°21' W 065°11'713.3
2019-Aug-11 03:31N 18°16' W 065°06'713.2
2019-Aug-11 03:01N 18°12' W 065°00'713.4
2019-Aug-11 02:31N 18°09' W 064°54'713.4
2019-Aug-11 02:01N 18°05' W 064°48'713.3
2019-Aug-11 01:30N 18°02' W 064°42'713.5
2019-Aug-11 00:59N 17°58' W 064°36'  

Dump ship's entire track history